Morning Sun, Arkansas
Current Conditions -  °F | °C
As of 11:56 PM on Wednesday 28 Jan 2015 (Local Time) from KSRC Reporting Station
Clear Clear  
Wind Chill: 44°   Ceiling: Unl
Heat Index: 46°   Visibility: 10mi
Dew Point: 40°   Wind: 5mph
Humidity: 79%   Direction: 210°SSW
Pressure: 30.04"   Gusts: NA
Location:  35.2662°N, 91.8491°W
Report Text: KSRC 290556Z AUTO 21004KT 10SM CLR 08/04 A3004 RMK AO2 SLP179 T00780044 10122 20078 56006 TSNO
Loading
Personal Weather Stations






























Interactive Weather Map New forecast layout! Learn more

10-Day Weather Forecast

Advertisements
Track Severe Weather on mobile